OCN49B EDDS-LHBP
Flight info
| Callsign | OCN49B |
|---|---|
| Flight time | 1h 3m |
| Altitude | 35000 |
| Route | ABTAL4H/07 ABTAL L173 RIXED Y161 RIDAR Z98 MIQ L605 BIBAG Q104 AKIMA DCT MAREG DCT ANEXA ANEXA2T |
| Aircraft | A20N/M-SDE2E3FGHIRWXY/LB1 |
Departure
| Time | 2026-05-04 17:16 |
|---|---|
| Airport | Stuttgart Airport (EDDS) |
Arrival
| Time | 2026-05-04 18:19 |
|---|---|
| Airport | Budapest Liszt Ferenc International Airport (LHBP) |
| Time | Latitude | Longitude | Altitude | Speed | Heading |
|---|---|---|---|---|---|
| 2026-05-04 17:00 | 48.68786 | 9.19618 | 1288 ft | 0 kts | 164° |
| 2026-05-04 17:14 | 48.68756 | 9.19858 | 1288 ft | 21 kts | 73° |
| 2026-05-04 17:14 | 48.68711 | 9.19975 | 1288 ft | 9 kts | 166° |
| 2026-05-04 17:14 | 48.68591 | 9.20122 | 1288 ft | 18 kts | 79° |
| 2026-05-04 17:15 | 48.68643 | 9.20375 | 1288 ft | 38 kts | 74° |
| 2026-05-04 17:15 | 48.69055 | 9.22554 | 1477 ft | 163 kts | 69° |
| 2026-05-04 17:16 | 48.69659 | 9.26002 | 2772 ft | 171 kts | 72° |
| 2026-05-04 17:16 | 48.70847 | 9.32311 | 3301 ft | 245 kts | 72° |
| 2026-05-04 17:17 | 48.71344 | 9.34886 | 3585 ft | 263 kts | 72° |
| 2026-05-04 17:17 | 48.72928 | 9.43220 | 5189 ft | 281 kts | 73° |
| 2026-05-04 17:18 | 48.73469 | 9.46095 | 5819 ft | 283 kts | 74° |
| 2026-05-04 17:18 | 48.74549 | 9.51861 | 7159 ft | 286 kts | 76° |
| 2026-05-04 17:19 | 48.75640 | 9.57694 | 8473 ft | 290 kts | 76° |
| 2026-05-04 17:19 | 48.76749 | 9.63628 | 9870 ft | 296 kts | 77° |
| 2026-05-04 17:20 | 48.77906 | 9.69865 | 10604 ft | 323 kts | 77° |
| 2026-05-04 17:20 | 48.79181 | 9.76735 | 11094 ft | 351 kts | 77° |
| 2026-05-04 17:20 | 48.79845 | 9.80317 | 11554 ft | 357 kts | 76° |
| 2026-05-04 17:21 | 48.81208 | 9.87686 | 12579 ft | 364 kts | 76° |
| 2026-05-04 17:21 | 48.82577 | 9.95114 | 13646 ft | 371 kts | 76° |
| 2026-05-04 17:22 | 48.83282 | 9.98917 | 14318 ft | 374 kts | 76° |
| 2026-05-04 17:22 | 48.83985 | 10.02701 | 14989 ft | 379 kts | 76° |
| 2026-05-04 17:23 | 48.85180 | 10.14642 | 17212 ft | 387 kts | 95° |
| 2026-05-04 17:23 | 48.84972 | 10.18759 | 17937 ft | 390 kts | 98° |
| 2026-05-04 17:23 | 48.84281 | 10.26990 | 19191 ft | 398 kts | 100° |
| 2026-05-04 17:24 | 48.83891 | 10.31196 | 19804 ft | 402 kts | 100° |
| 2026-05-04 17:24 | 48.81502 | 10.43371 | 21567 ft | 405 kts | 125° |
| 2026-05-04 17:25 | 48.79866 | 10.46777 | 22156 ft | 405 kts | 131° |
| 2026-05-04 17:25 | 48.76095 | 10.53171 | 23320 ft | 409 kts | 136° |
| 2026-05-04 17:26 | 48.72070 | 10.59429 | 24269 ft | 416 kts | 137° |
| 2026-05-04 17:26 | 48.65976 | 10.68955 | 25553 ft | 425 kts | 136° |
| 2026-05-04 17:27 | 48.61993 | 10.75625 | 26346 ft | 433 kts | 129° |
| 2026-05-04 17:27 | 48.59241 | 10.83793 | 27106 ft | 446 kts | 108° |
| 2026-05-04 17:28 | 48.58363 | 10.93127 | 27874 ft | 454 kts | 95° |
| 2026-05-04 17:29 | 48.58011 | 11.07648 | 28949 ft | 463 kts | 93° |
| 2026-05-04 17:29 | 48.57748 | 11.22289 | 29948 ft | 470 kts | 92° |
| 2026-05-04 17:30 | 48.57550 | 11.33988 | 30887 ft | 468 kts | 93° |
| 2026-05-04 17:31 | 48.57362 | 11.43812 | 31683 ft | 466 kts | 93° |
| 2026-05-04 17:31 | 48.56982 | 11.58433 | 32788 ft | 462 kts | 98° |
| 2026-05-04 17:32 | 48.55859 | 11.67929 | 33482 ft | 460 kts | 103° |
| 2026-05-04 17:33 | 48.53806 | 11.82029 | 34404 ft | 458 kts | 104° |
| 2026-05-04 17:33 | 48.53105 | 11.86709 | 34650 ft | 458 kts | 104° |
| 2026-05-04 17:34 | 48.51520 | 12.00907 | 34940 ft | 454 kts | 98° |
| 2026-05-04 17:34 | 48.51154 | 12.05649 | 34933 ft | 453 kts | 98° |
| 2026-05-04 17:35 | 48.49554 | 12.27641 | 34916 ft | 453 kts | 98° |
| 2026-05-04 17:36 | 48.48848 | 12.37051 | 34912 ft | 453 kts | 98° |
| 2026-05-04 17:36 | 48.48127 | 12.46499 | 34909 ft | 453 kts | 98° |
| 2026-05-04 17:37 | 48.47396 | 12.55965 | 34914 ft | 453 kts | 98° |
| 2026-05-04 17:37 | 48.46662 | 12.65372 | 34906 ft | 453 kts | 98° |
| 2026-05-04 17:38 | 48.45920 | 12.74776 | 34906 ft | 453 kts | 98° |
| 2026-05-04 17:38 | 48.45168 | 12.84211 | 34903 ft | 453 kts | 98° |
| 2026-05-04 17:39 | 48.44029 | 12.98319 | 34901 ft | 453 kts | 98° |
| 2026-05-04 17:39 | 48.43260 | 13.07731 | 34902 ft | 453 kts | 99° |
| 2026-05-04 17:40 | 48.42480 | 13.17175 | 34899 ft | 452 kts | 99° |
| 2026-05-04 17:40 | 48.41701 | 13.26513 | 34897 ft | 451 kts | 99° |
| 2026-05-04 17:41 | 48.41026 | 13.35892 | 34899 ft | 452 kts | 96° |
| 2026-05-04 17:41 | 48.40598 | 13.45374 | 34892 ft | 451 kts | 95° |
| 2026-05-04 17:42 | 48.40209 | 13.54765 | 34892 ft | 451 kts | 95° |
| 2026-05-04 17:42 | 48.39787 | 13.64183 | 34898 ft | 451 kts | 95° |
| 2026-05-04 17:43 | 48.39341 | 13.73551 | 34892 ft | 451 kts | 95° |
| 2026-05-04 17:43 | 48.38877 | 13.82987 | 34898 ft | 452 kts | 95° |
| 2026-05-04 17:44 | 48.38407 | 13.92411 | 34888 ft | 452 kts | 95° |
| 2026-05-04 17:44 | 48.37931 | 14.01827 | 34885 ft | 452 kts | 95° |
| 2026-05-04 17:45 | 48.37446 | 14.11266 | 34887 ft | 452 kts | 95° |
| 2026-05-04 17:45 | 48.36953 | 14.20704 | 34886 ft | 453 kts | 95° |
| 2026-05-04 17:46 | 48.36452 | 14.30132 | 34888 ft | 453 kts | 95° |
| 2026-05-04 17:46 | 48.35941 | 14.39614 | 34891 ft | 454 kts | 95° |
| 2026-05-04 17:47 | 48.35423 | 14.49089 | 34898 ft | 454 kts | 96° |
| 2026-05-04 17:47 | 48.34901 | 14.58488 | 34896 ft | 455 kts | 96° |
| 2026-05-04 17:48 | 48.34365 | 14.68000 | 34899 ft | 455 kts | 96° |
| 2026-05-04 17:48 | 48.33822 | 14.77475 | 34902 ft | 456 kts | 96° |
| 2026-05-04 17:49 | 48.33274 | 14.86924 | 34906 ft | 456 kts | 96° |
| 2026-05-04 17:49 | 48.32714 | 14.96440 | 34911 ft | 457 kts | 96° |
| 2026-05-04 17:50 | 48.32146 | 15.05957 | 34901 ft | 457 kts | 96° |
| 2026-05-04 17:50 | 48.31569 | 15.15481 | 34912 ft | 457 kts | 96° |
| 2026-05-04 17:51 | 48.30986 | 15.24967 | 34907 ft | 457 kts | 96° |
| 2026-05-04 17:51 | 48.30396 | 15.34458 | 34908 ft | 457 kts | 96° |
| 2026-05-04 17:52 | 48.29799 | 15.43916 | 34913 ft | 457 kts | 96° |
| 2026-05-04 17:52 | 48.29190 | 15.53454 | 34906 ft | 457 kts | 96° |
| 2026-05-04 17:53 | 48.28577 | 15.62918 | 34911 ft | 457 kts | 96° |
| 2026-05-04 17:53 | 48.27954 | 15.72419 | 34909 ft | 457 kts | 96° |
| 2026-05-04 17:54 | 48.27326 | 15.81879 | 34910 ft | 456 kts | 96° |
| 2026-05-04 17:54 | 48.26690 | 15.91337 | 34912 ft | 456 kts | 96° |
| 2026-05-04 17:55 | 48.26043 | 16.00832 | 34917 ft | 456 kts | 96° |
| 2026-05-04 17:55 | 48.25394 | 16.10245 | 34923 ft | 456 kts | 96° |
| 2026-05-04 17:56 | 48.24734 | 16.19711 | 34919 ft | 456 kts | 96° |
| 2026-05-04 17:56 | 48.24066 | 16.29170 | 34550 ft | 456 kts | 95° |
| 2026-05-04 17:57 | 48.23730 | 16.33884 | 34230 ft | 458 kts | 95° |
| 2026-05-04 17:57 | 48.23383 | 16.38731 | 33934 ft | 462 kts | 95° |
| 2026-05-04 17:57 | 48.23039 | 16.43499 | 33602 ft | 464 kts | 95° |
| 2026-05-04 17:57 | 48.22689 | 16.48331 | 33279 ft | 465 kts | 95° |
| 2026-05-04 17:58 | 48.22341 | 16.53113 | 32958 ft | 465 kts | 95° |
| 2026-05-04 17:58 | 48.21986 | 16.57947 | 32634 ft | 465 kts | 95° |
| 2026-05-04 17:58 | 48.21630 | 16.62779 | 32317 ft | 465 kts | 95° |
| 2026-05-04 17:58 | 48.21273 | 16.67585 | 32006 ft | 465 kts | 95° |
| 2026-05-04 17:59 | 48.20914 | 16.72397 | 31697 ft | 465 kts | 95° |
| 2026-05-04 17:59 | 48.20545 | 16.77306 | 31380 ft | 466 kts | 96° |
| 2026-05-04 17:59 | 48.19822 | 16.86859 | 30795 ft | 466 kts | 96° |
| 2026-05-04 18:00 | 48.19452 | 16.91710 | 30515 ft | 467 kts | 96° |
| 2026-05-04 18:00 | 48.18963 | 16.96476 | 30219 ft | 468 kts | 103° |
| 2026-05-04 18:00 | 48.18079 | 17.01188 | 29808 ft | 467 kts | 106° |
| 2026-05-04 18:00 | 48.17126 | 17.05803 | 29237 ft | 465 kts | 107° |
| 2026-05-04 18:01 | 48.16153 | 17.10395 | 28701 ft | 461 kts | 107° |
| 2026-05-04 18:01 | 48.15172 | 17.14975 | 28150 ft | 457 kts | 107° |
| 2026-05-04 18:01 | 48.14212 | 17.19438 | 27626 ft | 453 kts | 107° |
| 2026-05-04 18:02 | 48.12282 | 17.28375 | 26591 ft | 446 kts | 108° |
| 2026-05-04 18:02 | 48.11335 | 17.32741 | 26093 ft | 442 kts | 108° |
| 2026-05-04 18:02 | 48.10389 | 17.37096 | 25602 ft | 439 kts | 108° |
| 2026-05-04 18:02 | 48.09442 | 17.41443 | 25043 ft | 436 kts | 108° |
| 2026-05-04 18:03 | 48.08514 | 17.45696 | 24513 ft | 432 kts | 108° |
| 2026-05-04 18:03 | 48.07577 | 17.49982 | 24008 ft | 429 kts | 108° |
| 2026-05-04 18:03 | 48.06634 | 17.54286 | 23499 ft | 448 kts | 108° |
| 2026-05-04 18:03 | 48.05628 | 17.58866 | 22866 ft | 476 kts | 108° |
| 2026-05-04 18:04 | 48.04592 | 17.63577 | 22094 ft | 482 kts | 108° |
| 2026-05-04 18:04 | 48.03539 | 17.68349 | 21309 ft | 479 kts | 109° |
| 2026-05-04 18:04 | 48.01427 | 17.77612 | 19812 ft | 466 kts | 113° |
| 2026-05-04 18:05 | 48.00094 | 17.82013 | 19091 ft | 460 kts | 116° |
| 2026-05-04 18:05 | 47.98706 | 17.86285 | 18383 ft | 452 kts | 117° |
| 2026-05-04 18:05 | 47.97338 | 17.90395 | 17608 ft | 444 kts | 118° |
| 2026-05-04 18:05 | 47.95958 | 17.94490 | 16825 ft | 436 kts | 118° |
| 2026-05-04 18:06 | 47.93262 | 18.02425 | 15386 ft | 422 kts | 118° |
| 2026-05-04 18:06 | 47.91937 | 18.06307 | 14765 ft | 414 kts | 118° |
| 2026-05-04 18:06 | 47.90631 | 18.10122 | 14179 ft | 410 kts | 119° |
| 2026-05-04 18:07 | 47.89344 | 18.13875 | 13612 ft | 408 kts | 119° |
| 2026-05-04 18:07 | 47.88046 | 18.17654 | 13266 ft | 406 kts | 119° |
| 2026-05-04 18:07 | 47.86772 | 18.21357 | 13037 ft | 404 kts | 119° |
| 2026-05-04 18:07 | 47.85483 | 18.25097 | 13009 ft | 403 kts | 119° |
| 2026-05-04 18:08 | 47.84223 | 18.28750 | 12990 ft | 395 kts | 118° |
| 2026-05-04 18:08 | 47.82978 | 18.32357 | 12798 ft | 382 kts | 119° |
| 2026-05-04 18:08 | 47.81795 | 18.35783 | 12448 ft | 368 kts | 119° |
| 2026-05-04 18:08 | 47.80621 | 18.39172 | 11834 ft | 364 kts | 119° |
| 2026-05-04 18:09 | 47.78339 | 18.45746 | 11059 ft | 344 kts | 119° |
| 2026-05-04 18:09 | 47.76272 | 18.51696 | 10977 ft | 308 kts | 119° |
| 2026-05-04 18:10 | 47.75300 | 18.54485 | 10659 ft | 301 kts | 119° |
| 2026-05-04 18:10 | 47.74333 | 18.57253 | 10224 ft | 300 kts | 120° |
| 2026-05-04 18:10 | 47.73379 | 18.59982 | 9803 ft | 299 kts | 119° |
| 2026-05-04 18:10 | 47.72419 | 18.62723 | 9344 ft | 297 kts | 119° |
| 2026-05-04 18:11 | 47.71478 | 18.65414 | 8917 ft | 294 kts | 120° |
| 2026-05-04 18:11 | 47.70533 | 18.68108 | 8464 ft | 292 kts | 119° |
| 2026-05-04 18:11 | 47.69613 | 18.70735 | 7976 ft | 285 kts | 119° |
| 2026-05-04 18:11 | 47.68703 | 18.73326 | 7502 ft | 279 kts | 119° |
| 2026-05-04 18:12 | 47.67816 | 18.75855 | 7014 ft | 273 kts | 120° |
| 2026-05-04 18:12 | 47.66950 | 18.78318 | 6547 ft | 269 kts | 119° |
| 2026-05-04 18:12 | 47.66091 | 18.80757 | 6125 ft | 262 kts | 120° |
| 2026-05-04 18:12 | 47.65264 | 18.83109 | 5997 ft | 254 kts | 120° |
| 2026-05-04 18:13 | 47.64446 | 18.85427 | 5985 ft | 255 kts | 120° |
| 2026-05-04 18:13 | 47.63618 | 18.87770 | 5986 ft | 255 kts | 120° |
| 2026-05-04 18:13 | 47.61960 | 18.92333 | 5476 ft | 249 kts | 122° |
| 2026-05-04 18:14 | 47.61069 | 18.94515 | 4887 ft | 249 kts | 126° |
| 2026-05-04 18:14 | 47.60170 | 18.96693 | 4307 ft | 243 kts | 124° |
| 2026-05-04 18:14 | 47.59225 | 18.98667 | 4039 ft | 225 kts | 134° |
| 2026-05-04 18:15 | 47.57249 | 19.01899 | 3978 ft | 208 kts | 136° |
| 2026-05-04 18:15 | 47.55320 | 19.05115 | 3511 ft | 206 kts | 136° |
| 2026-05-04 18:15 | 47.54362 | 19.06662 | 3220 ft | 204 kts | 136° |
| 2026-05-04 18:16 | 47.53427 | 19.08184 | 2931 ft | 200 kts | 136° |
| 2026-05-04 18:16 | 47.52494 | 19.09703 | 2688 ft | 196 kts | 136° |
| 2026-05-04 18:16 | 47.51592 | 19.11171 | 2437 ft | 189 kts | 136° |
| 2026-05-04 18:17 | 47.49870 | 19.13968 | 1943 ft | 179 kts | 136° |
| 2026-05-04 18:17 | 47.49048 | 19.15303 | 1706 ft | 170 kts | 136° |
| 2026-05-04 18:17 | 47.47562 | 19.17716 | 1271 ft | 147 kts | 135° |
| 2026-05-04 18:18 | 47.46885 | 19.18809 | 1106 ft | 143 kts | 134° |
| 2026-05-04 18:18 | 47.46217 | 19.19885 | 938 ft | 143 kts | 134° |
| 2026-05-04 18:18 | 47.45559 | 19.20969 | 682 ft | 141 kts | 135° |
| 2026-05-04 18:18 | 47.44891 | 19.22033 | 520 ft | 142 kts | 133° |
| 2026-05-04 18:19 | 47.43838 | 19.23735 | 460 ft | 77 kts | 131° |
| 2026-05-04 18:19 | 47.43682 | 19.24181 | 459 ft | 39 kts | 102° |
| 2026-05-04 18:19 | 47.43606 | 19.24501 | 455 ft | 19 kts | 124° |
| 2026-05-04 18:20 | 47.43579 | 19.24559 | 456 ft | 5 kts | 126° |
| 2026-05-04 18:20 | 47.43560 | 19.24597 | 457 ft | 4 kts | 127° |
| 2026-05-04 18:20 | 47.43546 | 19.24621 | 456 ft | 3 kts | 132° |
| 2026-05-04 18:20 | 47.43534 | 19.24641 | 457 ft | 2 kts | 132° |
| 2026-05-04 18:21 | 47.43522 | 19.24660 | 457 ft | 3 kts | 133° |
| 2026-05-04 18:21 | 47.43507 | 19.24684 | 455 ft | 3 kts | 133° |
| 2026-05-04 18:21 | 47.43490 | 19.24711 | 457 ft | 4 kts | 133° |
| 2026-05-04 18:21 | 47.43472 | 19.24740 | 457 ft | 4 kts | 132° |
| 2026-05-04 18:22 | 47.43452 | 19.24772 | 458 ft | 9 kts | 131° |
| 2026-05-04 18:22 | 47.43385 | 19.24880 | 461 ft | 15 kts | 133° |
| 2026-05-04 18:22 | 47.43313 | 19.24996 | 461 ft | 16 kts | 131° |
| 2026-05-04 18:22 | 47.43244 | 19.25114 | 462 ft | 15 kts | 123° |
| 2026-05-04 18:23 | 47.43251 | 19.25254 | 463 ft | 15 kts | 60° |
| 2026-05-04 18:23 | 47.43317 | 19.25350 | 471 ft | 15 kts | 39° |
| 2026-05-04 18:23 | 47.43418 | 19.25488 | 478 ft | 22 kts | 42° |
| 2026-05-04 18:23 | 47.43519 | 19.25623 | 484 ft | 17 kts | 44° |
| 2026-05-04 18:24 | 47.43533 | 19.25753 | 484 ft | 13 kts | 129° |
| 2026-05-04 18:24 | 47.43490 | 19.25823 | 481 ft | 14 kts | 132° |
| 2026-05-04 18:24 | 47.43417 | 19.25956 | 483 ft | 8 kts | 89° |
| 2026-05-04 18:24 | 47.43421 | 19.25967 | 482 ft | 0 kts | 51° |
| 2026-05-04 18:25 | 47.43443 | 19.26008 | 477 ft | 8 kts | 57° |
| 2026-05-04 18:25 | 47.43451 | 19.26061 | 485 ft | 3 kts | 106° |
| 2026-05-04 18:25 | 47.43433 | 19.26093 | 486 ft | 7 kts | 132° |
| 2026-05-04 18:25 | 47.43416 | 19.26122 | 487 ft | 0 kts | 132° |